Travisville, Indiana
Current Conditions -  °F | °C
As of 12:54 AM on Saturday 25 Oct 2014 (Local Time) from KFWA Reporting Station
Scattered Clouds Scattered Clouds  
Wind Chill: 45°   Ceiling: Unl
Heat Index: 48°   Visibility: 10mi
Dew Point: 46°   Wind: 6mph
Humidity: 93%   Direction: 220°SW
Pressure: 29.98"   Gusts: NA
Location:  40.7175°N, 85.1549°W
Report Text: KFWA 250454Z 22005KT 10SM FEW100 SCT220 09/08 A2998 RMK AO2 SLP152 T00890078 401780022
Loading
Personal Weather Stations






























Interactive Weather Map
Tropical Storm Tracking
New forecast layout! Learn more

10-Day Weather Forecast

Advertisements
Track Severe Weather on mobile